createdAt,value
2019-05-06T00:01:14.834Z,65.70
2019-05-06T00:03:43.535Z,65.90
2019-05-06T00:06:14.399Z,65.90
2019-05-06T00:08:43.995Z,65.70
2019-05-06T00:11:14.203Z,65.80
2019-05-06T00:13:44.518Z,65.80
2019-05-06T00:16:14.337Z,65.60
2019-05-06T00:18:44.929Z,65.90
2019-05-06T00:21:14.789Z,66.20
2019-05-06T00:23:45.254Z,66.10
2019-05-06T00:26:34.001Z,66.30
2019-05-06T00:29:04.473Z,66.40
2019-05-06T00:31:34.578Z,67.00
2019-05-06T00:34:04.362Z,67.20
2019-05-06T00:36:34.489Z,67.40
2019-05-06T00:39:05.042Z,67.50
2019-05-06T00:41:36.480Z,68.30
2019-05-06T00:44:04.451Z,68.30
2019-05-06T00:46:34.458Z,67.70
2019-05-06T00:49:03.877Z,68.30
2019-05-06T00:51:33.859Z,67.90
2019-05-06T00:54:20.792Z,68.10
2019-05-06T00:56:49.503Z,68.20
2019-05-06T00:59:18.189Z,68.40
2019-05-06T01:01:46.907Z,68.40
2019-05-06T01:04:15.587Z,68.30
2019-05-06T01:06:44.304Z,68.60
2019-05-06T01:09:14.764Z,68.50
2019-05-06T01:11:44.951Z,68.50
2019-05-06T01:14:28.219Z,68.40
2019-05-06T01:16:56.929Z,68.30
2019-05-06T01:19:25.601Z,68.10
2019-05-06T01:21:54.317Z,68.50
2019-05-06T01:24:23.878Z,68.80
2019-05-06T01:26:53.674Z,68.80
2019-05-06T01:29:24.041Z,69.10
2019-05-06T01:31:54.384Z,69.00
2019-05-06T01:34:24.520Z,69.00
2019-05-06T01:36:54.507Z,69.30
2019-05-06T01:39:25.083Z,69.60
2019-05-06T01:42:11.399Z,69.40
2019-05-06T01:44:40.082Z,69.40
2019-05-06T01:47:08.801Z,69.40
2019-05-06T01:49:37.479Z,70.00
2019-05-06T01:52:06.178Z,70.00
2019-05-06T01:54:34.859Z,70.00
2019-05-06T01:57:04.490Z,69.40
2019-05-06T01:59:34.012Z,69.70
2019-05-06T02:02:04.343Z,69.80
2019-05-06T02:04:33.769Z,69.40
2019-05-06T02:07:03.860Z,69.40
2019-05-06T02:09:34.325Z,69.60
2019-05-06T02:12:04.616Z,69.60
2019-05-06T02:14:34.156Z,69.80
2019-05-06T02:17:03.634Z,70.00
2019-05-06T02:19:34.527Z,70.30
2019-05-06T02:22:04.607Z,70.10
2019-05-06T02:24:34.857Z,70.90
2019-05-06T02:27:04.478Z,70.70
2019-05-06T02:29:51.455Z,70.90
2019-05-06T02:32:27.063Z,70.60
2019-05-06T02:34:54.664Z,71.20
2019-05-06T02:37:37.571Z,70.80
2019-05-06T02:40:08.920Z,70.90
2019-05-06T02:42:37.668Z,71.50
2019-05-06T02:45:06.315Z,71.60
2019-05-06T02:47:53.724Z,71.10
2019-05-06T02:50:24.320Z,71.30
2019-05-06T02:52:53.694Z,71.40
2019-05-06T02:55:23.597Z,72.10
2019-05-06T02:57:53.570Z,72.00
2019-05-06T03:00:23.813Z,72.00
2019-05-06T03:02:54.072Z,71.70
2019-05-06T03:05:23.857Z,71.60
2019-05-06T03:07:57.180Z,71.90
2019-05-06T03:10:24.720Z,71.60
2019-05-06T03:12:53.914Z,71.60
2019-05-06T03:15:23.977Z,71.50
2019-05-06T03:17:55.348Z,71.70
2019-05-06T03:20:44.295Z,71.10
2019-05-06T03:23:29.995Z,70.90
2019-05-06T03:25:58.683Z,70.40
2019-05-06T03:28:27.392Z,70.60
2019-05-06T03:30:57.124Z,70.50
2019-05-06T03:33:46.611Z,70.20
2019-05-06T03:36:07.548Z,70.30
2019-05-06T03:38:26.699Z,70.00
2019-05-06T03:40:55.369Z,69.90
2019-05-06T03:43:24.153Z,70.40
2019-05-06T03:46:14.006Z,69.90
2019-05-06T03:48:44.319Z,70.10
2019-05-06T03:51:13.649Z,70.10
2019-05-06T03:53:43.375Z,70.00
2019-05-06T03:56:16.879Z,69.90
2019-05-06T03:58:43.541Z,69.50
2019-05-06T04:01:13.304Z,70.10
2019-05-06T04:03:47.718Z,70.10
2019-05-06T04:06:13.822Z,70.60
2019-05-06T04:08:43.690Z,70.80
2019-05-06T04:11:13.996Z,70.40
2019-05-06T04:13:43.777Z,70.70
2019-05-06T04:16:22.825Z,71.30
2019-05-06T04:18:53.891Z,70.00
2019-05-06T04:21:24.199Z,70.50
2019-05-06T04:23:57.649Z,70.50
2019-05-06T04:26:33.417Z,70.00
2019-05-06T04:29:03.954Z,70.20
2019-05-06T04:31:33.598Z,70.60
2019-05-06T04:34:12.875Z,69.70
2019-05-06T04:36:33.703Z,69.70
2019-05-06T04:39:06.309Z,69.70
2019-05-06T04:41:34.979Z,70.20
2019-05-06T04:44:04.312Z,69.60
2019-05-06T04:46:34.800Z,69.90
2019-05-06T04:49:04.152Z,69.50
2019-05-06T04:51:37.038Z,69.70
2019-05-06T04:54:04.265Z,69.60
2019-05-06T04:56:33.527Z,69.30
2019-05-06T04:59:03.153Z,70.10
2019-05-06T05:01:34.145Z,70.20
2019-05-06T05:04:03.708Z,69.40
2019-05-06T05:06:32.930Z,69.10
2019-05-06T05:09:02.839Z,70.00
2019-05-06T05:11:39.081Z,69.30
2019-05-06T05:14:09.411Z,69.30
2019-05-06T05:16:48.810Z,69.20
2019-05-06T05:19:17.554Z,68.90
2019-05-06T05:21:46.241Z,69.00
2019-05-06T05:24:14.911Z,68.40
2019-05-06T05:26:46.962Z,68.00
2019-05-06T05:29:13.954Z,67.50
2019-05-06T05:31:43.666Z,68.30
2019-05-06T05:34:12.789Z,67.80
2019-05-06T05:36:42.612Z,67.50
2019-05-06T05:39:12.510Z,67.40
2019-05-06T05:41:42.878Z,67.30
2019-05-06T05:44:16.307Z,67.00
2019-05-06T05:46:45.031Z,66.50
2019-05-06T05:49:18.413Z,67.70
2019-05-06T05:51:45.645Z,66.60
2019-05-06T05:54:14.327Z,66.40
2019-05-06T05:56:43.156Z,65.70
2019-05-06T05:59:12.287Z,64.70
2019-05-06T06:01:43.274Z,64.20
2019-05-06T06:04:13.018Z,64.20
2019-05-06T06:06:42.339Z,63.40
2019-05-06T06:09:12.734Z,63.40
2019-05-06T06:11:45.978Z,62.20
2019-05-06T06:14:25.349Z,62.30
2019-05-06T06:17:04.646Z,61.10
2019-05-06T06:19:47.194Z,61.70
2019-05-06T06:22:17.478Z,61.90
2019-05-06T06:24:46.171Z,61.80
2019-05-06T06:27:14.887Z,61.00
2019-05-06T06:29:45.291Z,61.10
2019-05-06T06:32:18.511Z,61.70
2019-05-06T06:34:56.172Z,61.90
2019-05-06T06:37:35.863Z,61.90
2019-05-06T06:40:07.043Z,60.30
2019-05-06T06:42:35.765Z,59.20
2019-05-06T06:45:05.386Z,59.80
2019-05-06T06:47:34.099Z,60.70
2019-05-06T06:50:03.079Z,60.00
2019-05-06T06:52:32.579Z,59.50
2019-05-06T06:55:02.379Z,59.10
2019-05-06T06:57:34.389Z,59.20
2019-05-06T07:00:14.341Z,58.70
2019-05-06T07:03:02.697Z,60.00
2019-05-06T07:05:45.259Z,59.80
2019-05-06T07:08:13.975Z,57.80
2019-05-06T07:10:45.507Z,56.40
2019-05-06T07:13:14.615Z,56.30
2019-05-06T07:15:43.291Z,56.40
2019-05-06T07:18:13.438Z,55.40
2019-05-06T07:20:46.575Z,54.00
2019-05-06T07:23:25.187Z,54.10
2019-05-06T07:25:54.371Z,54.80
2019-05-06T07:28:23.885Z,54.70
2019-05-06T07:30:52.661Z,53.80
2019-05-06T07:33:22.941Z,53.90
2019-05-06T07:35:52.907Z,53.40
2019-05-06T07:38:23.096Z,53.60
2019-05-06T07:40:53.857Z,53.40
2019-05-06T07:43:42.061Z,52.30
2019-05-06T07:46:27.789Z,52.00
2019-05-06T07:48:56.515Z,51.40
2019-05-06T07:51:25.199Z,51.20
2019-05-06T07:53:53.931Z,50.80
2019-05-06T07:56:22.663Z,50.30
2019-05-06T07:58:53.054Z,51.10
2019-05-06T08:01:25.911Z,50.10
2019-05-06T08:03:53.292Z,52.00
2019-05-06T08:06:22.711Z,51.00
2019-05-06T08:08:53.637Z,52.50
2019-05-06T08:11:23.308Z,54.30
2019-05-06T08:13:52.803Z,51.00
2019-05-06T08:16:22.572Z,51.70
2019-05-06T08:18:52.489Z,50.70
2019-05-06T08:21:26.884Z,51.80
2019-05-06T08:23:56.297Z,50.20
2019-05-06T08:26:24.983Z,49.50
2019-05-06T08:28:53.729Z,50.60
2019-05-06T08:31:23.136Z,48.50
2019-05-06T08:33:52.450Z,48.00
2019-05-06T08:36:39.393Z,47.00
2019-05-06T08:39:08.124Z,46.60
2019-05-06T08:41:36.831Z,47.60
2019-05-06T08:44:05.574Z,45.70
2019-05-06T08:46:34.271Z,43.90
2019-05-06T08:49:03.351Z,43.20
2019-05-06T08:51:33.645Z,43.80
2019-05-06T08:54:03.893Z,43.20
2019-05-06T08:56:32.606Z,42.90
2019-05-06T08:59:03.184Z,42.70
2019-05-06T09:01:33.237Z,41.00
2019-05-06T09:04:09.541Z,41.00
2019-05-06T09:06:34.404Z,41.50
2019-05-06T09:09:02.631Z,41.20
2019-05-06T09:11:32.221Z,41.60
2019-05-06T09:14:03.376Z,41.80
2019-05-06T09:16:33.052Z,40.80
2019-05-06T09:19:04.375Z,40.40
2019-05-06T09:21:33.496Z,38.30
2019-05-06T09:24:02.522Z,39.20
2019-05-06T09:26:47.853Z,38.10
2019-05-06T09:29:23.045Z,38.30
2019-05-06T09:31:53.093Z,38.20
2019-05-06T09:34:29.576Z,38.30
2019-05-06T09:37:15.250Z,39.10
2019-05-06T09:39:44.646Z,39.30
2019-05-06T09:42:13.889Z,38.00
2019-05-06T09:44:43.766Z,38.40
2019-05-06T09:47:14.070Z,36.90
2019-05-06T09:49:46.874Z,38.10
2019-05-06T09:52:15.605Z,37.10
2019-05-06T09:54:45.866Z,37.20
2019-05-06T09:57:22.159Z,36.70
2019-05-06T09:59:52.639Z,37.30
2019-05-06T10:02:23.062Z,37.20
2019-05-06T10:04:52.372Z,37.40
2019-05-06T10:07:22.621Z,38.70
2019-05-06T10:09:52.599Z,37.80
2019-05-06T10:12:21.679Z,37.10
2019-05-06T10:14:52.577Z,38.90
2019-05-06T10:17:20.749Z,39.50
2019-05-06T10:19:49.445Z,38.30
2019-05-06T10:22:18.189Z,39.80
2019-05-06T10:24:46.847Z,39.20
2019-05-06T10:27:15.568Z,39.10
2019-05-06T10:29:45.815Z,38.80
2019-05-06T10:32:32.822Z,39.10
2019-05-06T10:35:02.846Z,38.20
2019-05-06T10:37:52.879Z,38.20
2019-05-06T10:40:32.772Z,37.50
2019-05-06T10:43:15.873Z,38.70
2019-05-06T10:45:44.587Z,38.30
2019-05-06T10:48:13.274Z,36.60
2019-05-06T10:50:43.632Z,36.40
2019-05-06T10:53:19.764Z,36.90
2019-05-06T10:55:59.440Z,36.30
2019-05-06T10:58:28.133Z,37.50
2019-05-06T11:01:03.954Z,37.90
2019-05-06T11:03:32.995Z,36.40
2019-05-06T11:06:02.611Z,37.30
2019-05-06T11:08:32.625Z,35.10
2019-05-06T11:11:15.010Z,34.80
2019-05-06T11:13:32.262Z,35.90
2019-05-06T11:16:03.237Z,33.90
2019-05-06T11:18:33.482Z,34.00
2019-05-06T11:21:03.486Z,35.40
2019-05-06T11:23:33.815Z,36.30
2019-05-06T11:26:03.127Z,35.00
2019-05-06T11:28:42.856Z,34.50
2019-05-06T11:31:14.193Z,35.70
2019-05-06T11:33:44.635Z,34.70
2019-05-06T11:36:15.279Z,34.00
2019-05-06T11:38:44.124Z,35.00
2019-05-06T11:41:13.286Z,34.10
2019-05-06T11:43:42.811Z,35.30
2019-05-06T11:46:12.272Z,35.20
2019-05-06T11:48:43.123Z,36.20
2019-05-06T11:51:13.089Z,36.20
2019-05-06T11:53:41.824Z,37.00
2019-05-06T11:56:12.644Z,38.50
2019-05-06T11:58:54.473Z,36.40
2019-05-06T12:01:24.723Z,35.70
2019-05-06T12:03:53.446Z,35.60
2019-05-06T12:06:22.705Z,34.60
2019-05-06T12:08:52.448Z,34.30
2019-05-06T12:11:23.389Z,34.90
2019-05-06T12:13:53.242Z,38.70
2019-05-06T12:16:26.001Z,41.90
2019-05-06T12:18:53.032Z,41.90
2019-05-06T12:21:23.112Z,43.50
2019-05-06T12:23:53.845Z,44.00
2019-05-06T12:26:22.397Z,44.40
2019-05-06T12:28:53.145Z,43.00
2019-05-06T12:31:23.325Z,44.00
2019-05-06T12:33:53.313Z,43.30
2019-05-06T12:36:23.124Z,44.70
2019-05-06T12:38:56.476Z,43.50
2019-05-06T12:41:25.208Z,43.00
2019-05-06T12:43:54.352Z,43.00
2019-05-06T12:46:24.592Z,41.70
2019-05-06T12:48:53.318Z,39.90
2019-05-06T12:51:22.719Z,39.50
2019-05-06T12:53:52.926Z,39.10
2019-05-06T12:56:21.910Z,39.20
2019-05-06T12:58:52.487Z,39.40
2019-05-06T13:01:20.976Z,40.40
2019-05-06T13:03:49.650Z,39.10
2019-05-06T13:06:18.863Z,39.80
2019-05-06T13:08:58.503Z,38.80
2019-05-06T13:11:18.007Z,39.00
2019-05-06T13:13:59.864Z,37.90
2019-05-06T13:16:17.675Z,37.30
2019-05-06T13:18:47.392Z,37.20
2019-05-06T13:21:16.775Z,37.80
2019-05-06T13:23:49.990Z,37.20
2019-05-06T13:26:18.753Z,36.60
2019-05-06T13:28:49.009Z,36.50
2019-05-06T13:31:21.832Z,38.20
2019-05-06T13:34:07.942Z,39.50
2019-05-06T13:36:36.783Z,40.30
2019-05-06T13:39:13.644Z,39.60
2019-05-06T13:41:37.160Z,40.30
2019-05-06T13:44:10.233Z,38.80
2019-05-06T13:46:40.524Z,39.10
2019-05-06T13:49:13.144Z,39.90
2019-05-06T13:51:43.019Z,38.90
2019-05-06T13:54:15.712Z,39.30
2019-05-06T13:56:42.604Z,39.90
2019-05-06T13:59:12.909Z,41.90
2019-05-06T14:01:44.189Z,42.30
2019-05-06T14:04:14.649Z,42.70
2019-05-06T14:06:43.507Z,42.60
2019-05-06T14:09:28.027Z,43.70
2019-05-06T14:11:42.743Z,42.80
2019-05-06T14:14:12.621Z,42.70
2019-05-06T14:16:42.679Z,42.60
2019-05-06T14:19:13.207Z,42.20
2019-05-06T14:21:43.135Z,41.30
2019-05-06T14:24:13.269Z,41.90
2019-05-06T14:26:44.836Z,42.10
2019-05-06T14:29:15.360Z,42.10
2019-05-06T14:31:45.666Z,43.80
2019-05-06T14:34:14.417Z,44.80
2019-05-06T14:36:43.418Z,44.80
2019-05-06T14:39:19.995Z,45.30
2019-05-06T14:41:50.276Z,46.00
2019-05-06T14:44:18.942Z,46.10
2019-05-06T14:46:51.868Z,45.20
2019-05-06T14:49:22.507Z,45.70
2019-05-06T14:51:53.055Z,45.80
2019-05-06T14:54:22.122Z,44.50
2019-05-06T14:57:04.625Z,44.60
2019-05-06T14:59:33.333Z,44.20
2019-05-06T15:02:02.590Z,43.50
2019-05-06T15:04:32.441Z,43.30
2019-05-06T15:07:02.158Z,43.70
2019-05-06T15:09:33.006Z,44.20
2019-05-06T15:12:02.308Z,43.50
2019-05-06T15:14:33.057Z,42.80
2019-05-06T15:17:02.340Z,42.00
2019-05-06T15:19:31.212Z,42.20
2019-05-06T15:22:02.101Z,41.00
2019-05-06T15:24:30.286Z,41.40
2019-05-06T15:26:59.002Z,41.00
2019-05-06T15:29:27.699Z,41.50
2019-05-06T15:32:09.887Z,43.10
2019-05-06T15:34:42.156Z,41.90
2019-05-06T15:37:24.722Z,42.00
2019-05-06T15:39:53.484Z,43.00
2019-05-06T15:42:22.510Z,42.60
2019-05-06T15:44:51.409Z,43.20
2019-05-06T15:47:22.518Z,43.10
2019-05-06T15:49:52.481Z,43.70
2019-05-06T15:52:23.239Z,43.40
2019-05-06T15:54:52.442Z,44.20
2019-05-06T15:57:22.870Z,43.40
2019-05-06T15:59:52.962Z,43.00
2019-05-06T16:02:23.307Z,43.30
2019-05-06T16:04:52.331Z,44.20
2019-05-06T16:07:25.617Z,44.30
2019-05-06T16:09:55.023Z,43.00
2019-05-06T16:12:22.139Z,43.10
2019-05-06T16:14:53.057Z,42.90
2019-05-06T16:17:23.605Z,43.50
2019-05-06T16:19:51.663Z,42.80
2019-05-06T16:22:22.363Z,43.10
2019-05-06T16:24:58.398Z,42.80
2019-05-06T16:27:27.142Z,43.30
2019-05-06T16:29:55.925Z,42.70
2019-05-06T16:32:24.631Z,42.60
2019-05-06T16:34:53.356Z,43.00
2019-05-06T16:37:22.358Z,41.80
2019-05-06T16:39:52.495Z,43.30
2019-05-06T16:42:22.487Z,42.00
2019-05-06T16:44:52.657Z,41.80
2019-05-06T16:47:37.399Z,41.20
2019-05-06T16:50:10.128Z,40.80
2019-05-06T16:52:38.809Z,41.60
2019-05-06T16:55:09.761Z,40.90
2019-05-06T16:57:38.451Z,41.00
2019-05-06T17:00:09.579Z,41.50
2019-05-06T17:02:41.884Z,42.20
2019-05-06T17:05:17.964Z,42.20
2019-05-06T17:07:47.848Z,41.50
2019-05-06T17:10:16.568Z,41.30
2019-05-06T17:12:45.247Z,41.20
2019-05-06T17:15:13.975Z,40.80
2019-05-06T17:17:46.755Z,41.80
2019-05-06T17:20:13.031Z,41.20
2019-05-06T17:22:42.357Z,42.10
2019-05-06T17:25:11.245Z,41.30
2019-05-06T17:27:40.930Z,41.70
2019-05-06T17:30:17.694Z,42.80
2019-05-06T17:32:47.966Z,43.40
2019-05-06T17:35:16.685Z,43.00
2019-05-06T17:37:46.938Z,42.80
2019-05-06T17:40:17.238Z,42.20
2019-05-06T17:42:45.926Z,42.20
2019-05-06T17:45:32.882Z,42.40
2019-05-06T17:48:08.872Z,43.00
2019-05-06T17:50:37.608Z,42.80
2019-05-06T17:53:06.400Z,42.90
2019-05-06T17:55:35.130Z,43.60
2019-05-06T17:58:03.831Z,43.20
2019-05-06T18:00:32.563Z,42.80
2019-05-06T18:03:02.550Z,43.30
2019-05-06T18:05:32.510Z,43.50
2019-05-06T18:08:02.947Z,43.30
2019-05-06T18:10:33.503Z,44.10
2019-05-06T18:13:03.078Z,44.30
2019-05-06T18:15:32.629Z,44.40
2019-05-06T18:18:02.142Z,44.80
2019-05-06T18:20:33.438Z,44.10
2019-05-06T18:23:02.089Z,44.90
2019-05-06T18:25:32.813Z,44.80
2019-05-06T18:28:01.398Z,45.20
2019-05-06T18:30:34.350Z,45.60
2019-05-06T18:33:02.281Z,45.60
2019-05-06T18:35:30.851Z,46.00
2019-05-06T18:37:59.538Z,46.30
2019-05-06T18:40:28.246Z,46.40
2019-05-06T18:42:56.983Z,46.40
2019-05-06T18:45:25.674Z,46.70
2019-05-06T18:47:54.360Z,46.60
2019-05-06T18:50:23.081Z,46.80
2019-05-06T18:52:52.974Z,47.30
2019-05-06T18:55:22.416Z,47.60
2019-05-06T18:57:52.768Z,47.80
2019-05-06T19:00:22.407Z,48.30
2019-05-06T19:02:52.242Z,48.30
2019-05-06T19:05:27.078Z,48.30
2019-05-06T19:07:55.803Z,48.80
2019-05-06T19:10:26.073Z,48.80
2019-05-06T19:12:54.812Z,48.90
2019-05-06T19:15:23.535Z,48.70
2019-05-06T19:17:52.733Z,48.90
2019-05-06T19:20:22.240Z,49.10
2019-05-06T19:22:53.530Z,49.50
2019-05-06T19:25:22.773Z,49.80
2019-05-06T19:27:53.127Z,50.90
2019-05-06T19:30:22.467Z,50.80
2019-05-06T19:32:53.086Z,50.20
2019-05-06T19:35:21.783Z,50.70
2019-05-06T19:37:50.523Z,50.70
2019-05-06T19:40:19.210Z,51.20
2019-05-06T19:42:50.395Z,51.50
2019-05-06T19:45:18.270Z,52.00
2019-05-06T19:47:46.990Z,52.30
2019-05-06T19:50:15.686Z,52.70
2019-05-06T19:52:44.429Z,53.30
2019-05-06T19:55:13.422Z,53.70
2019-05-06T19:57:43.123Z,53.90
2019-05-06T20:00:11.880Z,54.20
2019-05-06T20:02:42.812Z,54.60
2019-05-06T20:05:12.559Z,54.90
2019-05-06T20:07:43.021Z,55.30
2019-05-06T20:10:29.270Z,55.30
2019-05-06T20:13:02.636Z,55.50
2019-05-06T20:15:36.923Z,55.70
2019-05-06T20:18:25.019Z,55.80
2019-05-06T20:20:53.704Z,56.30
2019-05-06T20:23:23.193Z,56.40
2019-05-06T20:25:52.172Z,56.70
2019-05-06T20:28:22.767Z,56.80
2019-05-06T20:30:52.933Z,57.20
2019-05-06T20:33:22.061Z,57.50
2019-05-06T20:35:52.544Z,57.60
2019-05-06T20:38:23.230Z,57.60
2019-05-06T20:40:51.591Z,57.50
2019-05-06T20:43:23.581Z,57.90
2019-05-06T20:45:52.162Z,57.80
2019-05-06T20:48:23.331Z,58.30
2019-05-06T20:50:52.371Z,58.60
2019-05-06T20:53:22.627Z,58.90
2019-05-06T20:55:53.211Z,58.90
2019-05-06T20:58:23.001Z,59.20
2019-05-06T21:00:52.244Z,59.20
2019-05-06T21:03:22.114Z,59.50
2019-05-06T21:05:51.178Z,59.70
2019-05-06T21:08:21.930Z,59.90
2019-05-06T21:10:52.734Z,59.80
2019-05-06T21:13:29.601Z,60.70
2019-05-06T21:15:51.014Z,60.10
2019-05-06T21:18:19.736Z,60.20
2019-05-06T21:20:48.426Z,60.80
2019-05-06T21:23:17.154Z,61.00
2019-05-06T21:25:45.857Z,60.90
2019-05-06T21:28:14.567Z,61.20
2019-05-06T21:30:43.264Z,61.40
2019-05-06T21:33:12.381Z,61.60
2019-05-06T21:35:42.371Z,61.40
2019-05-06T21:38:12.121Z,61.40
2019-05-06T21:40:43.138Z,61.50
2019-05-06T21:43:13.060Z,61.60
2019-05-06T21:45:42.474Z,61.70
2019-05-06T21:48:13.428Z,62.00
2019-05-06T21:50:42.700Z,62.10
2019-05-06T21:53:14.414Z,62.30
2019-05-06T21:55:41.912Z,62.40
2019-05-06T21:58:12.419Z,62.50
2019-05-06T22:00:43.397Z,62.50
2019-05-06T22:03:13.473Z,62.40
2019-05-06T22:05:42.472Z,62.60
2019-05-06T22:08:12.852Z,62.50
2019-05-06T22:10:42.170Z,62.60
2019-05-06T22:13:14.261Z,62.50
2019-05-06T22:15:42.130Z,62.60
2019-05-06T22:18:12.427Z,62.70
2019-05-06T22:20:59.566Z,62.90
2019-05-06T22:23:29.867Z,63.10
2019-05-06T22:26:11.256Z,63.50
2019-05-06T22:28:28.928Z,63.60
2019-05-06T22:30:57.619Z,62.80
2019-05-06T22:33:26.342Z,63.00
2019-05-06T22:35:55.038Z,63.00
2019-05-06T22:38:23.760Z,63.00
2019-05-06T22:40:52.949Z,63.20
2019-05-06T22:43:22.010Z,63.20
2019-05-06T22:45:53.096Z,63.30
2019-05-06T22:48:22.205Z,63.00
2019-05-06T22:50:52.901Z,63.20
2019-05-06T22:53:22.113Z,63.30
2019-05-06T22:55:52.382Z,63.00
2019-05-06T22:58:22.801Z,63.40
2019-05-06T23:00:53.750Z,63.60
2019-05-06T23:03:24.190Z,63.80
2019-05-06T23:05:52.872Z,64.50
2019-05-06T23:08:21.571Z,63.80
2019-05-06T23:10:50.258Z,63.90
2019-05-06T23:13:18.982Z,64.30
2019-05-06T23:15:47.662Z,64.50
2019-05-06T23:18:16.374Z,64.70
2019-05-06T23:20:45.046Z,64.90
2019-05-06T23:23:13.722Z,65.10
2019-05-06T23:25:43.631Z,65.30
2019-05-06T23:28:12.434Z,65.60
2019-05-06T23:30:42.864Z,65.60
2019-05-06T23:33:11.804Z,65.80
2019-05-06T23:35:43.725Z,66.00
2019-05-06T23:38:48.560Z,66.30
2019-05-06T23:41:53.568Z,66.30
2019-05-06T23:44:58.957Z,66.50
2019-05-06T23:48:04.147Z,66.80
2019-05-06T23:51:09.608Z,67.30
2019-05-06T23:54:14.524Z,67.40
2019-05-06T23:56:44.058Z,67.40
2019-05-06T23:59:14.452Z,67.50
